Time;durP1;ratioP1;P1;durP2;ratioP2;P2;SDS_P1;SDS_P2;PMS_P1;PMS_P2;Temp;Humidity;BMP_temperature;BMP_pressure;BME280_temperature;BME280_humidity;BME280_pressure;Samples;Min_cycle;Max_cycle;Signal;HPM_P1;HPM_P2
2022/06/21 00:01:51;;;;;;;4.23;3.40;;;;;;;11.34;87.17;100383.81;5079962;28;20208;-80
2022/06/21 00:04:18;;;;;;;4.53;3.90;;;;;;;11.36;87.29;100371.56;5079871;28;20218;-80
2022/06/21 00:06:44;;;;;;;4.33;3.90;;;;;;;11.40;86.73;100398.50;5079604;28;20208;-80
2022/06/21 00:09:12;;;;;;;5.10;3.97;;;;;;;11.44;86.53;100401.00;5079332;28;20235;-80
2022/06/21 00:11:41;;;;;;;3.70;3.40;;;;;;;11.46;86.23;100408.81;5079690;28;20229;-80
2022/06/21 00:14:08;;;;;;;3.80;3.50;;;;;;;11.39;86.33;100423.75;5080489;28;20238;-80
2022/06/21 00:16:35;;;;;;;5.13;4.50;;;;;;;11.40;85.93;100425.47;5079945;28;20238;-80
2022/06/21 00:19:02;;;;;;;7.27;4.17;;;;;;;11.39;86.06;100439.44;5079156;28;20222;-80
2022/06/21 00:21:33;;;;;;;5.40;4.30;;;;;;;11.45;85.57;100448.88;5072055;28;20203;-80
2022/06/21 00:24:00;;;;;;;4.63;4.23;;;;;;;11.43;86.02;100451.53;5078965;28;20255;-80
2022/06/21 00:26:29;;;;;;;7.23;5.13;;;;;;;11.26;86.56;100445.84;5079019;28;20671;-80
2022/06/21 00:28:57;;;;;;;6.20;4.20;;;;;;;11.12;87.48;100425.22;5079364;28;20258;-80
2022/06/21 00:31:28;;;;;;;5.77;4.87;;;;;;;11.12;87.96;100409.56;5079301;28;20268;-80
2022/06/21 00:33:54;;;;;;;5.93;4.40;;;;;;;11.01;88.76;100394.09;5079319;28;20204;-80
2022/06/21 00:36:24;;;;;;;6.00;4.17;;;;;;;11.10;88.57;100377.38;5078707;28;20266;-80
2022/06/21 00:38:51;;;;;;;4.83;4.33;;;;;;;11.08;88.44;100385.25;5079277;28;20225;-79
2022/06/21 00:41:20;;;;;;;4.90;4.40;;;;;;;11.07;88.90;100370.44;5079587;28;20654;-80
2022/06/21 00:43:51;;;;;;;5.50;4.90;;;;;;;11.05;89.15;100372.25;5079607;28;20672;-80
2022/06/21 00:46:31;;;;;;;5.63;4.57;;;;;;;11.03;89.23;100362.72;5079040;28;20257;-80
2022/06/21 00:48:58;;;;;;;6.77;4.83;;;;;;;11.06;89.40;100357.41;5078263;28;20240;-79
2022/06/21 00:51:30;;;;;;;5.07;4.60;;;;;;;11.06;89.23;100354.81;5079114;28;20208;-80
2022/06/21 00:54:02;;;;;;;4.47;4.03;;;;;;;11.09;88.93;100362.59;5078985;28;20270;-80
2022/06/21 00:56:33;;;;;;;5.87;4.60;;;;;;;11.04;89.59;100356.59;5079424;28;20632;-79
2022/06/21 00:59:16;;;;;;;8.30;4.60;;;;;;;10.94;89.80;100353.31;5079397;28;20217;-81
2022/06/21 01:01:44;;;;;;;6.10;4.63;;;;;;;11.02;89.79;100351.44;5078892;28;20205;-79
2022/06/21 01:04:14;;;;;;;4.73;4.33;;;;;;;11.04;89.56;100356.59;5078799;28;20615;-80
2022/06/21 01:06:44;;;;;;;5.60;5.07;;;;;;;11.00;89.69;100358.44;5079299;28;20211;-80
2022/06/21 01:09:15;;;;;;;4.93;4.43;;;;;;;10.94;89.83;100353.31;5078917;28;20746;-80
2022/06/21 01:11:46;;;;;;;4.83;4.37;;;;;;;10.87;90.33;100343.91;5066343;28;20208;-80
2022/06/21 01:14:15;;;;;;;6.57;4.33;;;;;;;10.70;90.89;100331.22;5071943;28;20205;-80
2022/06/21 01:16:43;;;;;;;5.37;4.83;;;;;;;10.76;90.73;100318.03;5078519;28;20502;-79
2022/06/21 01:19:20;;;;;;;5.80;4.77;;;;;;;10.67;91.24;100306.03;5078470;28;20224;-80
2022/06/21 01:21:51;;;;;;;7.20;4.83;;;;;;;10.58;92.20;100292.31;5079068;28;20211;-79
2022/06/21 01:24:24;;;;;;;6.07;5.00;;;;;;;10.58;92.39;100290.56;5078328;28;20206;-80
2022/06/21 01:26:56;;;;;;;6.67;4.87;;;;;;;10.59;92.44;100300.13;5078786;28;20207;-80
2022/06/21 01:29:27;;;;;;;4.97;4.47;;;;;;;10.56;92.95;100299.34;5069093;28;20231;-80
2022/06/21 01:31:56;;;;;;;7.00;4.70;;;;;;;10.59;93.04;100300.13;5078935;28;20210;-80
2022/06/21 01:34:25;;;;;;;8.00;4.50;;;;;;;10.62;92.57;100320.09;5078730;28;20200;-80
2022/06/21 01:36:57;;;;;;;6.13;4.47;;;;;;;10.64;92.29;100315.69;5078997;28;20219;-80
2022/06/21 01:39:29;;;;;;;4.57;4.17;;;;;;;10.78;91.98;100329.28;5078075;28;20229;-79
2022/06/21 01:42:02;;;;;;;5.10;3.80;;;;;;;10.77;91.44;100335.44;5077990;28;20204;-80
2022/06/21 01:44:33;;;;;;;5.67;3.40;;;;;;;10.79;91.35;100340.63;5077935;28;20262;-80
2022/06/21 01:47:02;;;;;;;5.13;4.07;;;;;;;10.70;91.80;100334.72;5077747;28;20203;-80
2022/06/21 01:49:32;;;;;;;4.40;3.50;;;;;;;10.82;91.09;100345.75;5077485;28;20270;-80
2022/06/21 01:52:02;;;;;;;4.97;3.77;;;;;;;10.79;91.44;100348.44;5078394;28;20283;-80
2022/06/21 01:54:34;;;;;;;5.03;4.40;;;;;;;10.64;92.00;100347.88;5077550;28;20214;-80
2022/06/21 01:57:02;;;;;;;8.17;3.87;;;;;;;10.66;92.50;100333.06;5077571;28;20760;-80
2022/06/21 01:59:33;;;;;;;4.33;3.53;;;;;;;10.78;92.67;100331.91;5066656;28;20224;-79
2022/06/21 02:02:02;;;;;;;6.33;3.67;;;;;;;10.85;92.19;100337.88;5074280;28;20204;-80
2022/06/21 02:04:32;;;;;;;5.10;3.70;;;;;;;10.90;92.42;100347.34;5078008;28;20211;-79
2022/06/21 02:07:04;;;;;;;4.97;2.93;;;;;;;10.85;92.24;100359.63;5077351;28;20292;-79
2022/06/21 02:09:36;;;;;;;4.27;3.10;;;;;;;10.98;91.66;100361.97;5077399;28;20258;-79
2022/06/21 02:12:06;;;;;;;5.50;2.90;;;;;;;11.09;91.12;100376.50;5078304;28;20235;-80
2022/06/21 02:14:36;;;;;;;6.03;3.67;;;;;;;11.13;90.42;100395.59;5077864;28;20212;-79
2022/06/21 02:17:09;;;;;;;4.63;3.07;;;;;;;11.16;89.80;100418.16;5078065;28;20706;-80
2022/06/21 02:19:40;;;;;;;4.63;2.93;;;;;;;11.19;89.41;100432.03;5077855;28;20597;-80
2022/06/21 02:22:13;;;;;;;4.37;3.07;;;;;;;11.23;89.47;100433.69;5078084;28;20641;-80
2022/06/21 02:24:40;;;;;;;3.90;3.20;;;;;;;11.22;89.38;100431.97;5077764;28;20207;-80
2022/06/21 02:27:10;;;;;;;7.33;3.30;;;;;;;11.24;89.10;100432.78;5078325;28;20211;-79
2022/06/21 02:29:36;;;;;;;8.53;3.73;;;;;;;11.27;89.19;100430.09;5064999;28;20330;-80
2022/06/21 02:32:05;;;;;;;6.83;3.30;;;;;;;11.31;88.90;100421.28;5074309;28;20229;-80
2022/06/21 02:34:40;;;;;;;4.70;3.00;;;;;;;11.23;88.99;100425.84;5078156;28;20276;-80
2022/06/21 02:37:09;;;;;;;7.83;3.10;;;;;;;11.26;88.82;100424.94;5077776;28;20207;-80
2022/06/21 02:39:36;;;;;;;3.23;2.63;;;;;;;11.21;88.89;100418.94;5078018;28;20222;-80
2022/06/21 02:42:09;;;;;;;5.47;2.87;;;;;;;11.04;89.72;100403.59;5078005;28;20208;-80
2022/06/21 02:44:40;;;;;;;4.30;3.20;;;;;;;10.87;90.67;100375.25;5077999;28;20215;-80
2022/06/21 02:47:12;;;;;;;6.63;3.40;;;;;;;10.80;91.29;100363.22;5077274;28;20210;-79
2022/06/21 02:49:42;;;;;;;4.03;2.97;;;;;;;10.71;91.63;100344.25;5077234;28;20296;-79
2022/06/21 02:52:13;;;;;;;3.37;3.07;;;;;;;10.70;91.98;100337.31;5078397;28;20210;-80
2022/06/21 02:54:46;;;;;;;6.03;3.53;;;;;;;10.70;92.10;100341.66;5077770;28;20210;-80
2022/06/21 02:57:16;;;;;;;6.87;3.97;;;;;;;10.64;92.54;100332.19;5078110;28;20211;-80
2022/06/21 02:59:45;;;;;;;4.97;3.73;;;;;;;10.67;92.39;100334.75;5064269;28;20280;-80
2022/06/21 03:02:15;;;;;;;4.27;2.87;;;;;;;10.79;92.31;100338.88;5075477;28;20203;-79
2022/06/21 03:04:48;;;;;;;4.70;3.03;;;;;;;10.84;91.41;100357.03;5077511;28;20617;-80
2022/06/21 03:07:21;;;;;;;3.93;2.80;;;;;;;11.01;90.94;100369.75;5078275;28;20204;-80
2022/06/21 03:09:47;;;;;;;4.47;2.47;;;;;;;11.00;90.29;100384.56;5077236;28;20227;-80
2022/06/21 03:12:19;;;;;;;8.23;2.43;;;;;;;11.08;89.87;100407.88;5077920;28;20206;-80
2022/06/21 03:14:49;;;;;;;3.20;2.43;;;;;;;11.15;89.85;100419.94;5078269;28;20279;-80
2022/06/21 03:17:18;;;;;;;4.03;2.70;;;;;;;11.19;89.21;100442.47;5078423;28;20231;-80
2022/06/21 03:19:50;;;;;;;6.60;3.70;;;;;;;11.21;89.14;100439.84;5077727;28;20223;-80
2022/06/21 03:22:19;;;;;;;2.67;2.40;;;;;;;11.29;88.53;100454.44;5081694;28;20260;-79
2022/06/21 03:24:48;;;;;;;4.43;2.63;;;;;;;11.23;88.30;100457.19;5083817;28;20245;-79
2022/06/21 03:27:24;;;;;;;4.93;2.63;;;;;;;11.19;88.30;100458.16;5082557;28;20207;-80
2022/06/21 03:29:52;;;;;;;5.10;3.27;;;;;;;11.10;88.76;100448.78;5065862;28;20330;-79
2022/06/21 03:32:18;;;;;;;8.27;2.47;;;;;;;11.20;88.51;100443.31;5070875;28;20704;-80
2022/06/21 03:34:45;;;;;;;3.90;2.63;;;;;;;11.22;88.30;100447.66;5081120;28;20210;-80
2022/06/21 03:37:12;;;;;;;5.90;3.00;;;;;;;11.06;88.99;100435.78;5080511;28;20622;-80
2022/06/21 03:42:28;;;;;;;5.57;2.33;;;;;;;10.87;90.46;100388.31;5080653;28;20262;-80
2022/06/21 03:44:59;;;;;;;5.93;2.37;;;;;;;10.91;90.95;100382.13;5081064;28;20238;-80
2022/06/21 03:47:29;;;;;;;11.37;2.90;;;;;;;10.89;90.97;100387.38;5080919;28;20211;-79
2022/06/21 03:50:01;;;;;;;5.93;2.80;;;;;;;11.08;90.63;100384.38;5080158;28;20245;-80
2022/06/21 03:52:43;;;;;;;5.87;2.57;;;;;;;11.13;90.18;100406.03;5081403;28;20234;-81
2022/06/21 03:55:20;;;;;;;5.40;2.53;;;;;;;11.32;89.67;100422.19;5067811;28;20212;-79
2022/06/21 03:57:52;;;;;;;3.50;2.00;;;;;;;11.44;88.55;100449.81;5069709;28;20200;-81
2022/06/21 04:00:20;;;;;;;4.43;2.07;;;;;;;11.56;87.62;100474.81;5069329;28;20227;-81
2022/06/21 04:02:52;;;;;;;3.20;2.07;;;;;;;11.66;87.42;100492.00;5070924;28;20201;-82
2022/06/21 04:05:24;;;;;;;3.07;2.30;;;;;;;11.69;87.19;100494.53;5067775;28;20231;-80
2022/06/21 04:08:00;;;;;;;5.60;2.50;;;;;;;11.78;87.41;100507.41;5068166;28;20204;-81
2022/06/21 04:10:34;;;;;;;3.60;2.00;;;;;;;11.83;86.53;100522.97;5071273;28;20272;-80
2022/06/21 04:13:06;;;;;;;6.70;2.97;;;;;;;11.78;86.14;100532.69;5068867;28;20204;-81
2022/06/21 04:15:39;;;;;;;7.43;2.53;;;;;;;11.67;86.93;100520.72;5069718;28;20225;-82
2022/06/21 04:18:23;;;;;;;4.33;2.20;;;;;;;11.70;86.84;100514.56;5058893;28;20240;-81
2022/06/21 04:20:54;;;;;;;3.73;2.00;;;;;;;11.79;86.80;100503.03;5059176;28;20200;-82
2022/06/21 04:23:28;;;;;;;7.33;2.00;;;;;;;11.69;86.79;100505.88;5058208;28;20269;-80
2022/06/21 04:26:02;;;;;;;8.97;3.37;;;;;;;11.51;87.21;100501.88;5059728;28;20204;-82
2022/06/21 04:28:37;;;;;;;6.10;2.93;;;;;;;11.45;88.03;100482.88;5058357;28;20195;-81
2022/06/21 04:31:09;;;;;;;7.13;2.57;;;;;;;11.50;88.15;100463.56;5068700;28;20219;-81
2022/06/21 04:33:42;;;;;;;4.90;2.70;;;;;;;11.44;88.04;100453.25;5067522;28;20258;-82
2022/06/21 04:36:16;;;;;;;6.57;2.50;;;;;;;11.49;88.28;100451.38;5068099;28;20200;-81
2022/06/21 04:38:52;;;;;;;7.70;3.03;;;;;;;11.52;88.00;100448.72;5069657;28;20599;-81
2022/06/21 04:41:24;;;;;;;7.33;3.23;;;;;;;11.58;88.34;100450.34;5069055;28;20258;-81
2022/06/21 04:43:57;;;;;;;4.60;2.10;;;;;;;11.55;87.61;100473.06;5067740;28;20233;-81
2022/06/21 04:46:31;;;;;;;4.67;2.50;;;;;;;11.55;87.86;100481.75;5067892;28;20201;-81
2022/06/21 04:49:03;;;;;;;4.90;2.80;;;;;;;11.46;88.10;100476.75;5067195;28;20720;-80
2022/06/21 04:51:34;;;;;;;6.10;2.43;;;;;;;11.44;88.25;100461.09;5069925;28;20259;-82
2022/06/21 04:54:05;;;;;;;6.20;2.67;;;;;;;11.47;88.14;100468.84;5067236;28;20204;-80
2022/06/21 04:56:40;;;;;;;10.03;3.60;;;;;;;11.32;88.52;100470.06;5066975;28;20742;-80
2022/06/21 04:59:12;;;;;;;5.83;3.23;;;;;;;11.35;89.32;100461.28;5056890;28;20230;-81
2022/06/21 05:01:39;;;;;;;5.40;2.93;;;;;;;11.55;89.29;100450.38;5057521;28;20334;-80
2022/06/21 05:04:11;;;;;;;5.23;3.10;;;;;;;11.54;88.79;100464.38;5057491;28;20623;-80
2022/06/21 05:06:39;;;;;;;5.23;2.90;;;;;;;11.67;88.77;100450.13;5058348;28;20199;-79
2022/06/21 05:09:06;;;;;;;4.47;2.63;;;;;;;11.66;88.71;100458.00;5066520;28;20280;-82
2022/06/21 05:11:33;;;;;;;4.67;3.30;;;;;;;11.58;89.16;100460.78;5068936;28;20223;-82
2022/06/21 05:14:00;;;;;;;6.60;3.53;;;;;;;11.59;89.94;100453.81;5063566;28;20231;-82
2022/06/21 05:16:31;;;;;;;6.17;3.87;;;;;;;11.56;90.27;100433.84;5058207;28;20205;-81
2022/06/21 05:19:06;;;;;;;5.33;3.80;;;;;;;11.79;90.28;100428.03;5057664;28;20235;-82
2022/06/21 05:21:36;;;;;;;5.90;3.63;;;;;;;11.86;90.96;100413.06;5058522;28;20210;-82
2022/06/21 05:24:04;;;;;;;4.90;3.40;;;;;;;11.98;91.09;100410.19;5058422;28;20207;-81
2022/06/21 05:26:34;;;;;;;6.73;3.33;;;;;;;12.07;90.83;100415.19;5057882;28;20693;-81
2022/06/21 05:29:08;;;;;;;5.83;3.77;;;;;;;12.16;89.57;100440.25;5057516;28;20233;-81
2022/06/21 05:31:39;;;;;;;5.00;3.43;;;;;;;12.16;89.48;100450.72;5058459;28;20227;-82
2022/06/21 05:34:15;;;;;;;6.03;3.23;;;;;;;12.13;89.43;100461.28;5058186;28;20278;-82
2022/06/21 05:36:51;;;;;;;4.80;3.63;;;;;;;12.30;88.65;100468.69;5058139;28;20219;-81
2022/06/21 05:39:22;;;;;;;6.47;4.10;;;;;;;12.27;87.61;100508.03;5075220;28;20705;-81
2022/06/21 05:41:51;;;;;;;5.90;3.53;;;;;;;12.23;88.77;100496.78;5078168;28;20207;-80
2022/06/21 05:44:22;;;;;;;8.37;3.93;;;;;;;12.20;88.84;100469.81;5077614;28;20626;-80
2022/06/21 05:46:50;;;;;;;12.93;4.27;;;;;;;12.33;89.20;100471.25;5078896;28;20189;-81
2022/06/21 05:49:23;;;;;;;4.77;3.43;;;;;;;12.41;88.46;100487.59;5077396;28;20223;-81
2022/06/21 05:51:50;;;;;;;5.87;3.27;;;;;;;12.61;87.40;100513.25;5077298;28;20278;-81
2022/06/21 05:54:22;;;;;;;6.17;3.83;;;;;;;12.70;86.91;100539.22;5077668;28;20211;-81
2022/06/21 05:56:50;;;;;;;7.10;3.20;;;;;;;12.84;85.99;100580.78;5077669;28;20563;-80
2022/06/21 05:59:19;;;;;;;9.03;3.90;;;;;;;12.69;86.42;100579.41;5076290;28;20294;-80
2022/06/21 06:01:51;;;;;;;8.83;3.37;;;;;;;12.63;86.09;100600.50;5077062;28;20204;-80
2022/06/21 06:04:26;;;;;;;6.07;4.27;;;;;;;12.64;86.25;100602.22;5076681;28;20203;-80
2022/06/21 06:06:56;;;;;;;9.00;3.83;;;;;;;12.84;86.51;100586.00;5076947;28;20219;-81
2022/06/21 06:09:26;;;;;;;9.60;4.40;;;;;;;12.83;86.19;100597.38;5075462;28;20223;-79
2022/06/21 06:12:08;;;;;;;7.67;4.17;;;;;;;12.87;85.88;100591.16;5076664;28;20243;-80
2022/06/21 06:14:42;;;;;;;5.10;3.37;;;;;;;12.78;84.75;100630.69;5077097;28;20200;-81
2022/06/21 06:17:19;;;;;;;8.37;3.53;;;;;;;12.94;84.67;100643.41;5078036;28;20210;-82
2022/06/21 06:19:53;;;;;;;5.00;3.40;;;;;;;12.95;85.59;100630.25;5081660;28;20227;-82
2022/06/21 06:22:25;;;;;;;5.50;3.57;;;;;;;13.00;84.83;100635.38;5092696;28;20204;-82
2022/06/21 06:24:57;;;;;;;7.43;3.57;;;;;;;13.18;85.05;100631.41;5092728;28;20206;-80
2022/06/21 06:27:31;;;;;;;6.10;3.10;;;;;;;13.19;84.40;100657.59;5082682;28;20230;-82
2022/06/21 06:30:01;;;;;;;6.03;2.60;;;;;;;13.28;83.58;100661.75;5080420;28;20229;-81
2022/06/21 06:32:41;;;;;;;10.27;3.43;;;;;;;13.34;83.14;100689.56;5078238;28;20200;-82
2022/06/21 06:35:17;;;;;;;5.53;3.07;;;;;;;13.08;82.75;100709.41;5071323;28;20254;-82
2022/06/21 06:41:31;;;;;;;7.10;3.30;;;;;;;13.21;83.19;100702.13;4995834;28;20218;-81
2022/06/21 06:47:15;;;;;;;4.90;2.60;;;;;;;13.35;81.35;100765.56;5040083;28;20602;-83
2022/06/21 06:50:08;;;;;;;5.33;2.90;;;;;;;13.47;81.90;100759.16;5056732;28;20621;-82
2022/06/21 06:52:39;;;;;;;9.67;2.93;;;;;;;13.73;81.76;100744.50;5057998;28;20296;-80
2022/06/21 06:55:19;;;;;;;6.07;2.90;;;;;;;13.56;80.19;100779.03;5056648;28;20205;-80
2022/06/21 07:01:08;;;;;;;6.27;2.73;;;;;;;13.45;80.61;100801.16;5056885;28;20250;-79
2022/06/21 07:03:38;;;;;;;5.70;3.03;;;;;;;13.56;80.78;100779.91;5059954;28;20585;-79
2022/06/21 07:06:13;;;;;;;9.00;3.77;;;;;;;13.68;79.89;100797.94;5065427;28;20222;-79
2022/06/21 07:08:47;;;;;;;7.07;2.97;;;;;;;13.92;79.45;100823.59;5071717;28;20223;-80
2022/06/21 07:11:21;;;;;;;6.57;3.10;;;;;;;14.08;77.70;100862.50;5070545;28;20736;-80
2022/06/21 07:13:49;;;;;;;6.37;2.40;;;;;;;14.26;77.31;100882.16;5069761;28;20204;-80
2022/06/21 07:16:22;;;;;;;4.77;2.73;;;;;;;14.30;76.99;100906.56;5069202;28;20197;-80
2022/06/21 07:18:57;;;;;;;3.73;2.33;;;;;;;13.99;75.09;100953.75;5069142;28;20278;-82
2022/06/21 07:21:25;;;;;;;4.80;2.73;;;;;;;13.98;75.61;100952.03;5069222;28;20254;-80
2022/06/21 07:23:57;;;;;;;8.00;3.00;;;;;;;14.17;77.31;100924.41;5068701;28;20259;-80
2022/06/21 07:26:30;;;;;;;4.23;2.13;;;;;;;14.18;75.86;100946.28;5070308;28;20193;-80
2022/06/21 07:29:03;;;;;;;5.27;2.50;;;;;;;14.26;75.02;100974.06;5069245;28;20221;-78
2022/06/21 07:31:35;;;;;;;9.33;2.90;;;;;;;14.33;75.15;100980.03;5067976;28;20646;-78
2022/06/21 07:34:05;;;;;;;6.63;2.60;;;;;;;14.44;73.29;101006.84;5064597;28;20270;-79
2022/06/21 07:36:36;;;;;;;6.00;2.10;;;;;;;14.40;73.44;101012.25;5068475;28;20213;-79
2022/06/21 07:39:10;;;;;;;5.33;2.30;;;;;;;14.29;72.68;101034.38;5072163;28;20227;-78
2022/06/21 07:41:41;;;;;;;5.00;2.50;;;;;;;14.42;73.00;101034.06;5057678;28;20201;-77
2022/06/21 07:44:14;;;;;;;5.03;2.10;;;;;;;14.48;70.72;101057.56;5057730;28;20231;-79
2022/06/21 07:46:44;;;;;;;5.10;2.00;;;;;;;14.64;69.94;101086.97;5056242;28;20198;-77
2022/06/21 07:49:16;;;;;;;4.43;1.87;;;;;;;14.48;70.58;101121.47;5056361;28;20247;-78
2022/06/21 07:51:46;;;;;;;5.90;2.73;;;;;;;14.74;70.69;101093.72;5056730;28;20223;-78
2022/06/21 07:54:17;;;;;;;6.20;2.00;;;;;;;14.81;69.85;101121.56;5056421;28;20207;-78
2022/06/21 07:56:48;;;;;;;3.53;2.20;;;;;;;14.82;69.89;101141.69;5057700;28;20213;-78
2022/06/21 07:59:17;;;;;;;4.70;1.77;;;;;;;14.50;68.58;101173.97;5057051;28;20812;-80
2022/06/21 08:07:26;;;;;;;4.27;2.33;;;;;;;14.27;70.40;101130.72;5060230;28;20227;-79
2022/06/21 08:09:59;;;;;;;5.97;2.10;;;;;;;14.56;70.80;101087.16;5076800;28;20254;-79
2022/06/21 08:12:25;;;;;;;7.57;2.50;;;;;;;14.60;68.72;101117.72;5074009;28;20221;-79
2022/06/21 08:14:53;;;;;;;4.47;2.00;;;;;;;14.65;68.77;101149.16;5067061;28;20739;-78
2022/06/21 08:17:28;;;;;;;5.37;2.20;;;;;;;14.62;69.46;101147.44;5066091;28;20204;-77
2022/06/21 08:20:02;;;;;;;5.80;2.53;;;;;;;14.76;69.33;101127.84;5057781;28;20642;-79
2022/06/21 08:22:34;;;;;;;3.17;1.80;;;;;;;14.76;67.98;101162.00;5057342;28;20756;-79
2022/06/21 08:25:15;;;;;;;7.43;2.23;;;;;;;14.88;68.20;101161.69;5057541;28;20214;-79
2022/06/21 08:27:46;;;;;;;4.43;2.70;;;;;;;14.72;68.75;101148.06;5056788;28;20271;-80
2022/06/21 08:30:17;;;;;;;3.93;2.43;;;;;;;14.63;69.63;101109.75;5058595;28;20225;-78
2022/06/21 08:32:51;;;;;;;6.50;2.50;;;;;;;14.62;70.09;101110.66;5057571;28;20258;-78
2022/06/21 08:35:21;;;;;;;7.03;2.70;;;;;;;14.85;70.23;101102.19;5057708;28;20729;-79
2022/06/21 08:37:53;;;;;;;5.03;2.00;;;;;;;14.87;68.90;101091.63;5063267;28;20251;-79
2022/06/21 08:40:42;;;;;;;3.73;2.10;;;;;;;14.68;67.19;101141.16;5077383;28;20584;-79
2022/06/21 08:43:33;;;;;;;5.43;2.30;;;;;;;14.65;68.03;101163.13;5077646;28;20268;-79
2022/06/21 08:46:33;;;;;;;5.73;2.10;;;;;;;14.87;68.07;101146.84;5077952;28;20706;-79
2022/06/21 08:49:28;;;;;;;3.47;2.00;;;;;;;14.70;66.90;101165.66;5077251;28;20225;-80
2022/06/21 08:52:26;;;;;;;3.07;1.83;;;;;;;14.73;65.85;101178.72;5071268;28;20322;-79
2022/06/21 08:55:02;;;;;;;5.50;2.53;;;;;;;14.85;67.70;101164.41;5077492;28;20315;-79
2022/06/21 08:57:36;;;;;;;3.40;1.90;;;;;;;14.80;67.87;101161.03;5079951;28;20265;-78
2022/06/21 09:00:11;;;;;;;3.83;2.40;;;;;;;15.04;67.74;101147.28;5084358;28;20228;-78
2022/06/21 09:02:51;;;;;;;9.07;2.53;;;;;;;15.31;68.00;101134.28;5081781;28;20204;-78
2022/06/21 09:05:41;;;;;;;7.70;1.90;;;;;;;15.41;65.52;101154.16;5077288;28;20200;-78
2022/06/21 09:08:24;;;;;;;4.17;1.70;;;;;;;15.54;65.77;101181.00;5076025;28;20216;-78
2022/06/21 09:11:07;;;;;;;5.70;2.00;;;;;;;15.62;65.82;101178.16;5076847;28;20259;-79
2022/06/21 09:13:56;;;;;;;4.97;2.47;;;;;;;15.48;65.57;101229.41;5077067;28;20259;-79
2022/06/21 09:16:29;;;;;;;3.80;1.93;;;;;;;15.55;64.02;101193.25;5076427;28;20201;-78
2022/06/21 09:19:11;;;;;;;3.37;1.73;;;;;;;15.53;63.54;101224.00;5076925;28;20275;-78
2022/06/21 09:21:47;;;;;;;2.80;1.60;;;;;;;15.58;61.87;101245.81;5076966;28;20207;-79
2022/06/21 09:24:28;;;;;;;3.83;1.60;;;;;;;15.68;63.02;101270.13;5075660;28;20211;-79
2022/06/21 09:27:00;;;;;;;4.20;1.73;;;;;;;15.76;62.01;101281.34;5076479;28;20200;-79
2022/06/21 09:29:34;;;;;;;2.63;1.40;;;;;;;15.78;62.27;101281.31;5082771;28;20255;-78
2022/06/21 09:32:18;;;;;;;4.40;1.60;;;;;;;15.59;60.61;101325.63;5082533;28;20224;-78
2022/06/21 09:35:07;;;;;;;3.30;1.30;;;;;;;15.69;62.63;101309.53;5079516;28;20279;-79
2022/06/21 09:37:46;;;;;;;2.67;1.60;;;;;;;15.87;62.85;101270.50;5075723;28;20206;-79
2022/06/21 09:40:17;;;;;;;2.37;1.33;;;;;;;16.00;63.68;101263.13;5076628;28;20266;-79
2022/06/21 09:42:53;;;;;;;4.40;1.63;;;;;;;16.03;62.06;101263.88;5076416;28;20202;-79
2022/06/21 09:45:29;;;;;;;4.07;1.40;;;;;;;15.92;61.34;101309.88;5076014;28;20218;-79
2022/06/21 09:48:05;;;;;;;3.73;1.83;;;;;;;16.17;62.01;101271.38;5075836;28;20215;-78
2022/06/21 09:50:43;;;;;;;4.23;1.67;;;;;;;16.31;62.50;101246.44;4364563;28;10000726;-78
2022/06/21 09:53:18;;;;;;;3.07;1.60;;;;;;;16.38;62.55;101226.91;5054728;28;20227;-78
2022/06/21 09:55:53;;;;;;;4.67;1.67;;;;;;;16.56;62.62;101231.59;5051961;28;20208;-78
2022/06/21 09:58:25;;;;;;;6.57;2.20;;;;;;;16.51;61.05;101251.09;5050699;28;20198;-78
2022/06/21 10:01:02;;;;;;;4.43;1.40;;;;;;;16.52;60.50;101277.41;5052203;28;20207;-78
2022/06/21 10:03:40;;;;;;;3.27;1.60;;;;;;;16.63;61.11;101269.16;5052567;28;20275;-78
2022/06/21 10:06:13;;;;;;;4.27;1.37;;;;;;;16.62;58.24;101347.38;5052204;28;20204;-78
2022/06/21 10:08:59;;;;;;;4.87;1.30;;;;;;;16.56;57.69;101391.53;5051543;28;20236;-78
2022/06/21 10:11:39;;;;;;;3.87;1.40;;;;;;;16.68;55.58;101417.53;5071748;28;20230;-78
2022/06/21 10:14:32;;;;;;;2.93;1.20;;;;;;;16.80;57.12;101424.22;5072011;28;20268;-78
2022/06/21 10:17:50;;;;;;;6.80;2.07;;;;;;;16.95;61.22;101307.75;5072195;28;20329;-78
2022/06/21 10:20:37;;;;;;;2.47;1.17;;;;;;;16.88;58.59;101298.31;5009612;28;20785;-78
2022/06/21 10:23:23;;;;;;;3.80;1.57;;;;;;;16.76;58.71;101317.97;5010098;28;20216;-78
2022/06/21 10:26:03;;;;;;;2.73;1.23;;;;;;;16.72;57.60;101278.56;5060816;28;20243;-78
2022/06/21 10:29:02;;;;;;;3.40;1.30;;;;;;;16.94;59.04;101308.66;5071655;28;20210;-78
2022/06/21 10:31:48;;;;;;;2.97;1.40;;;;;;;17.19;59.95;101271.81;5071422;28;20276;-77
2022/06/21 10:34:43;;;;;;;3.53;1.50;;;;;;;17.39;59.44;101233.34;5072721;28;20208;-78
2022/06/21 10:37:25;;;;;;;4.90;1.70;;;;;;;17.44;57.28;101297.38;5070547;28;20205;-78
2022/06/21 10:40:22;;;;;;;3.10;1.50;;;;;;;17.55;57.92;101295.22;5065865;28;20222;-79
2022/06/21 10:43:23;;;;;;;3.77;1.33;;;;;;;17.67;56.77;101312.44;5071177;28;20644;-78
2022/06/21 10:45:54;;;;;;;5.90;1.90;;;;;;;17.83;56.90;101296.91;5071694;28;20212;-79
2022/06/21 10:48:47;;;;;;;3.43;1.20;;;;;;;17.93;56.64;101316.81;5071420;28;20210;-77
2022/06/21 10:51:26;;;;;;;1.90;0.90;;;;;;;17.66;50.96;101374.94;5071372;28;20214;-78
2022/06/21 10:54:17;;;;;;;3.97;1.00;;;;;;;17.70;50.55;101456.69;5071054;28;20210;-78
2022/06/21 10:57:13;;;;;;;2.57;0.90;;;;;;;17.97;52.60;101462.88;5071517;28;20863;-78
2022/06/21 11:02:56;;;;;;;2.63;1.07;;;;;;;17.75;51.75;101521.66;5071566;28;20205;-78
2022/06/21 11:05:29;;;;;;;4.23;1.00;;;;;;;17.81;51.18;101500.31;5072263;28;20210;-78
2022/06/21 11:08:04;;;;;;;2.60;1.07;;;;;;;17.98;50.97;101488.41;5063781;28;20216;-78
2022/06/21 11:10:37;;;;;;;3.33;1.13;;;;;;;18.17;50.75;101488.63;5063441;28;20227;-79
2022/06/21 11:13:14;;;;;;;3.07;1.00;;;;;;;18.44;51.22;101477.09;5071035;28;20961;-78
2022/06/21 11:15:52;;;;;;;3.67;1.00;;;;;;;18.64;49.93;101475.53;5071592;28;20206;-78
2022/06/21 11:18:35;;;;;;;2.60;0.90;;;;;;;18.92;51.10;101478.06;5071398;28;20221;-78
2022/06/21 11:21:10;;;;;;;1.87;1.00;;;;;;;18.92;47.71;101446.31;5072030;28;20231;-79
2022/06/21 11:23:49;;;;;;;2.63;1.03;;;;;;;19.12;49.31;101484.41;5071488;28;20268;-78
2022/06/21 11:26:23;;;;;;;2.33;0.97;;;;;;;19.21;48.41;101523.78;5071919;28;20688;-78
2022/06/21 11:28:58;;;;;;;1.23;0.77;;;;;;;19.50;48.75;101527.94;5071066;28;20283;-78
2022/06/21 11:31:40;;;;;;;1.57;1.00;;;;;;;19.82;47.56;101451.63;5071702;28;20210;-78
2022/06/21 11:34:19;;;;;;;2.03;1.23;;;;;;;19.95;47.06;101526.22;5071725;28;20216;-79
2022/06/21 11:36:53;;;;;;;1.47;0.90;;;;;;;20.12;46.27;101560.84;5072771;28;20220;-79
2022/06/21 11:39:34;;;;;;;4.40;1.03;;;;;;;20.99;44.64;101584.59;5071135;28;20281;-79
2022/06/21 11:42:12;;;;;;;1.77;0.73;;;;;;;22.15;43.40;101607.56;5073736;28;20642;-79
2022/06/21 11:45:02;;;;;;;2.33;1.30;;;;;;;23.72;39.15;101625.25;5073134;28;20209;-79
2022/06/21 11:47:45;;;;;;;1.73;0.80;;;;;;;25.35;36.44;101694.19;5073570;28;20266;-78
2022/06/21 11:50:18;;;;;;;1.23;0.80;;;;;;;25.76;34.21;101738.00;5070221;28;20241;-78
2022/06/21 11:53:09;;;;;;;2.80;1.10;;;;;;;25.94;35.99;101795.75;5052493;28;20229;-78
2022/06/21 11:55:43;;;;;;;1.23;0.87;;;;;;;26.72;34.14;101733.69;5051732;28;20220;-78
2022/06/21 11:58:21;;;;;;;1.60;1.03;;;;;;;27.23;31.84;101735.59;5051668;28;20212;-79
2022/06/21 12:00:54;;;;;;;2.53;1.00;;;;;;;26.07;33.08;101778.94;5052091;28;20213;-77
2022/06/21 12:03:32;;;;;;;2.30;1.20;;;;;;;27.65;33.54;101740.78;5051978;28;20210;-79
2022/06/21 12:06:06;;;;;;;1.97;1.10;;;;;;;27.69;32.41;101727.06;5052644;28;20205;-78
2022/06/21 12:08:38;;;;;;;1.23;0.73;;;;;;;26.82;30.31;101676.78;5065229;28;20222;-77
2022/06/21 12:11:15;;;;;;;2.43;1.50;;;;;;;28.17;31.23;101706.72;5071027;28;20208;-78
2022/06/21 12:13:52;;;;;;;1.10;0.90;;;;;;;29.27;30.98;101684.09;5073440;28;20232;-78
2022/06/21 12:16:36;;;;;;;1.83;1.00;;;;;;;26.55;30.23;101701.75;5073320;28;20208;-77
2022/06/21 12:19:06;;;;;;;2.13;0.83;;;;;;;27.95;31.12;101669.81;5072093;28;20229;-78